Aspen, Colorado
Current Conditions -  °F | °C
As of 12:53 AM on Sunday 26 Oct 2014 (Local Time) from KASE Reporting Station
Clear Clear  
Wind Chill: 45°   Ceiling: Unl
Heat Index: 45°   Visibility: 10mi
Dew Point: 28°   Wind: 3mph
Humidity: 52%   Direction: 220°SW
Pressure: 30.2"   Gusts: NA
Location:  39.19°N, 106.81°W
Report Text: KASE 260653Z AUTO 22003KT 10SM CLR 07/M02 A3020 RMK AO2 SLP126 T00721022 402221011
Loading
Personal Weather Stations






























Interactive Weather Map
Tropical Storm Tracking
New forecast layout! Learn more

10-Day Weather Forecast

Advertisements
Track Severe Weather on mobile